Fremont, NE

10:24 AM CDT on September 20, 2014 (GMT -0500)
Fremont Municipal | Change Station
CLOSE
Current Station
Airport
Location: Fremont,
Elevation: 1204 ft
Nearby Weather Stations

Elev 1204 ft 41.45 °N, 96.52 °W | Updated 9 minutes ago

Partly Cloudy
Partly Cloudy
75 °F
Feels Like 75 °F
N
0
Wind Variable Wind from North

Today
High -- | Low -- °F
--% Chance of Precip.
Yesterday
High -- | Low -- °F
Precip. -- in
7:11 AM 7:26 PM
Waning Crescent, 12% visible
Pressure 29.93 in
Visibility 10.0 miles
Clouds Scattered Clouds 8500 ft
Dew Point 63 °F
Humidity 66%
Rainfall 0.19 in
Snow Depth Not available.
UV 3 out of 12
Pollen 6.30 out of 12
Air Quality Not available.
Flu Activity Not available.
METAR KFET 201515Z AUTO 00000KT 10SM SCT085 24/17 A2993 RMK AO2 LTG DSNT S T02380172

More Conditions Fewer Conditions

Pressure 29.93 in
Visibility 10.0 miles
Clouds Scattered Clouds 8500 ft
Dew Point 63 °F
Humidity 66%
Rainfall 0.19 in
Snow Depth Not available.
UV 3 out of 12
Pollen 6.30 out of 12
Air Quality Not available.
Flu Activity Not available.
METAR KFET 201515Z AUTO 00000KT 10SM SCT085 24/17 A2993 RMK AO2 LTG DSNT S T02380172

More Conditions Fewer Conditions

10-Day Weather Forecast

Almanac

Astronomy

Sep. 20, 2014 Rise Set
Actual Time 7:11 AM CDT 7:26 PM CDT
Civil Twilight 6:43 AM CDT 7:54 PM CDT
Nautical Twilight 6:11 AM CDT 8:26 PM CDT
Astronomical Twilight 5:38 AM CDT 8:59 PM CDT
Moon 3:49 AM CDT 5:32 PM CDT
Length of Visible Light 13h 10m
Length of Day
12h 15m
Tomorrow will be 2m 44s shorter.
Waning Crescent, 12% of the Moon is Illuminated
Today
Waning Crescent
Sep 24
New
Oct 1
First Quarter
Oct 8
Full
Oct 15
Last Quarter

Today's Extremes

State Highs State Lows

Community

WunderPhotos

Upload Photos

1,754,874 photos uploaded!

Nearby

Snow Depth

Station Depth Elevation
No new snow has been reported.

Earthquake Activity

City Distance Mag. Time & Date
No recent earthquake activity has been reported nearby.
Minimum magnitude displayed is 2.5.

Coastal Water Temperatures

Place Temperature
No Stations Reporting

Nearby Weather Stations